createdAt,value
2023-12-14T00:00:19.414Z,1.30
2023-12-14T00:02:46.265Z,2.10
2023-12-14T00:05:13.099Z,2.22
2023-12-14T00:07:40.073Z,1.73
2023-12-14T00:10:08.406Z,1.70
2023-12-14T00:12:35.429Z,2.50
2023-12-14T00:15:02.275Z,2.08
2023-12-14T00:17:29.144Z,1.17
2023-12-14T00:19:56.200Z,1.42
2023-12-14T00:22:23.205Z,1.67
2023-12-14T00:24:50.694Z,1.70
2023-12-14T00:27:17.891Z,2.15
2023-12-14T00:29:44.660Z,1.98
2023-12-14T00:32:11.516Z,1.80
2023-12-14T00:34:38.409Z,2.40
2023-12-14T00:37:05.296Z,1.02
2023-12-14T00:39:32.108Z,1.55
2023-12-14T00:41:58.833Z,2.50
2023-12-14T00:44:25.590Z,1.42
2023-12-14T00:46:52.299Z,1.35
2023-12-14T00:49:21.804Z,1.70
2023-12-14T00:51:48.526Z,1.73
2023-12-14T00:54:15.220Z,1.55
2023-12-14T00:56:42.038Z,1.55
2023-12-14T00:59:08.994Z,1.10
2023-12-14T01:01:35.950Z,1.10
2023-12-14T01:04:02.724Z,1.85
2023-12-14T01:06:29.501Z,1.88
2023-12-14T01:08:56.545Z,1.23
2023-12-14T01:11:23.305Z,1.48
2023-12-14T01:13:50.334Z,1.38
2023-12-14T01:16:17.178Z,1.77
2023-12-14T01:18:44.064Z,2.47
2023-12-14T01:21:10.948Z,1.65
2023-12-14T01:23:38.987Z,1.55
2023-12-14T01:26:05.899Z,1.50
2023-12-14T01:28:32.652Z,1.88
2023-12-14T01:30:59.652Z,1.73
2023-12-14T01:33:26.781Z,1.98
2023-12-14T01:35:53.820Z,1.75
2023-12-14T01:38:20.529Z,1.67
2023-12-14T01:40:47.332Z,1.73
2023-12-14T01:43:14.202Z,1.55
2023-12-14T01:45:40.986Z,1.80
2023-12-14T01:48:07.928Z,1.80
2023-12-14T01:50:34.835Z,1.50
2023-12-14T01:53:01.706Z,1.90
2023-12-14T01:55:28.665Z,1.42
2023-12-14T01:57:55.406Z,3.03
2023-12-14T02:00:46.643Z,1.67
2023-12-14T02:03:13.539Z,1.40
2023-12-14T02:05:40.274Z,2.33
2023-12-14T02:08:07.047Z,1.90
2023-12-14T02:10:33.875Z,2.42
2023-12-14T02:13:03.197Z,1.23
2023-12-14T02:15:30.538Z,1.42
2023-12-14T02:17:57.381Z,2.20
2023-12-14T02:20:24.154Z,2.45
2023-12-14T02:22:55.103Z,1.48
2023-12-14T02:25:23.434Z,1.83
2023-12-14T02:27:51.579Z,2.75
2023-12-14T02:30:19.297Z,1.08
2023-12-14T02:32:46.272Z,1.40
2023-12-14T02:35:13.401Z,1.77
2023-12-14T02:37:43.034Z,1.52
2023-12-14T02:40:10.998Z,2.08
2023-12-14T02:42:38.392Z,2.55
2023-12-14T02:45:06.063Z,1.20
2023-12-14T02:47:32.851Z,1.50
2023-12-14T02:49:59.676Z,1.85
2023-12-14T02:52:26.440Z,1.45
2023-12-14T02:54:53.250Z,1.65
2023-12-14T02:57:20.070Z,1.83
2023-12-14T02:59:46.812Z,1.75
2023-12-14T03:02:13.646Z,2.30
2023-12-14T03:04:43.355Z,1.70
2023-12-14T03:07:10.246Z,1.80
2023-12-14T03:09:42.436Z,1.70
2023-12-14T03:12:09.125Z,2.33
2023-12-14T03:14:35.945Z,2.55
2023-12-14T03:17:03.424Z,1.40
2023-12-14T03:19:30.320Z,2.00
2023-12-14T03:21:57.040Z,1.20
2023-12-14T03:24:23.829Z,2.22
2023-12-14T03:26:50.538Z,1.95
2023-12-14T03:29:17.977Z,1.75
2023-12-14T03:31:44.776Z,1.50
2023-12-14T03:34:11.605Z,2.05
2023-12-14T03:36:38.356Z,1.40
2023-12-14T03:39:05.108Z,1.55
2023-12-14T03:41:31.855Z,1.38
2023-12-14T03:43:58.912Z,2.13
2023-12-14T03:46:26.130Z,2.90
2023-12-14T03:48:52.909Z,1.65
2023-12-14T03:51:22.905Z,1.65
2023-12-14T03:53:49.772Z,1.60
2023-12-14T03:56:16.611Z,1.95
2023-12-14T03:58:43.462Z,2.58
2023-12-14T04:01:19.914Z,2.28
2023-12-14T04:03:46.930Z,1.77
2023-12-14T04:06:14.784Z,1.15
2023-12-14T04:08:44.398Z,2.08
2023-12-14T04:11:11.198Z,3.03
2023-12-14T04:13:39.905Z,2.35
2023-12-14T04:16:07.410Z,1.75
2023-12-14T04:18:34.856Z,2.58
2023-12-14T04:21:01.671Z,2.63
2023-12-14T04:23:28.498Z,1.92
2023-12-14T04:25:55.310Z,2.05
2023-12-14T04:28:22.123Z,1.63
2023-12-14T04:30:48.994Z,4.25
2023-12-14T04:33:15.962Z,1.75
2023-12-14T04:35:42.809Z,2.20
2023-12-14T04:38:09.740Z,2.08
2023-12-14T04:40:36.656Z,1.95
2023-12-14T04:43:03.930Z,2.20
2023-12-14T04:45:30.704Z,2.22
2023-12-14T04:47:57.502Z,2.15
2023-12-14T04:50:24.432Z,2.50
2023-12-14T04:52:51.312Z,1.60
2023-12-14T04:55:18.076Z,1.95
2023-12-14T04:57:47.352Z,2.83
2023-12-14T05:00:14.672Z,1.98
2023-12-14T05:02:41.385Z,2.30
2023-12-14T05:05:08.304Z,1.70
2023-12-14T05:07:35.093Z,2.30
2023-12-14T05:10:01.865Z,2.00
2023-12-14T05:12:30.029Z,2.10
2023-12-14T05:14:56.734Z,2.47
2023-12-14T05:17:23.629Z,2.20
2023-12-14T05:19:51.150Z,2.40
2023-12-14T05:22:18.445Z,2.53
2023-12-14T05:24:48.295Z,2.38
2023-12-14T05:27:15.452Z,2.08
2023-12-14T05:29:42.599Z,3.72
2023-12-14T05:32:09.379Z,2.55
2023-12-14T05:34:36.246Z,2.13
2023-12-14T05:37:03.392Z,2.83
2023-12-14T05:39:30.296Z,2.15
2023-12-14T05:42:00.412Z,2.05
2023-12-14T05:44:27.170Z,1.92
2023-12-14T05:46:54.034Z,2.30
2023-12-14T05:49:20.868Z,1.75
2023-12-14T05:51:47.831Z,2.55
2023-12-14T05:54:14.641Z,2.47
2023-12-14T05:56:42.090Z,2.50
2023-12-14T05:59:09.891Z,2.30
2023-12-14T06:01:37.782Z,3.13
2023-12-14T06:04:04.976Z,1.83
2023-12-14T06:06:31.789Z,3.33
2023-12-14T06:08:58.671Z,2.63
2023-12-14T06:11:25.504Z,2.50
2023-12-14T06:13:52.530Z,1.90
2023-12-14T06:16:19.391Z,2.42
2023-12-14T06:18:46.305Z,1.80
2023-12-14T06:21:14.035Z,3.25
2023-12-14T06:23:40.865Z,2.22
2023-12-14T06:26:07.870Z,3.05
2023-12-14T06:28:34.838Z,3.08
2023-12-14T06:31:02.719Z,3.13
2023-12-14T06:33:30.022Z,3.15
2023-12-14T06:35:56.906Z,3.28
2023-12-14T06:38:24.161Z,2.42
2023-12-14T06:40:51.234Z,2.33
2023-12-14T06:43:18.051Z,3.00
2023-12-14T06:45:44.864Z,3.03
2023-12-14T06:48:11.660Z,3.38
2023-12-14T06:50:38.616Z,1.95
2023-12-14T06:53:05.439Z,2.10
2023-12-14T06:55:32.199Z,4.22
2023-12-14T06:57:58.909Z,2.25
2023-12-14T07:00:25.703Z,2.60
2023-12-14T07:02:52.654Z,2.40
2023-12-14T07:05:19.681Z,3.45
2023-12-14T07:07:46.533Z,2.65
2023-12-14T07:10:19.268Z,3.25
2023-12-14T07:12:46.243Z,2.38
2023-12-14T07:15:13.284Z,4.43
2023-12-14T07:17:40.936Z,2.53
2023-12-14T07:20:08.673Z,2.88
2023-12-14T07:22:35.837Z,3.53
2023-12-14T07:25:02.862Z,2.83
2023-12-14T07:27:29.696Z,3.78
2023-12-14T07:29:56.729Z,2.03
2023-12-14T07:32:24.108Z,3.83
2023-12-14T07:34:50.974Z,3.80
2023-12-14T07:37:17.881Z,2.70
2023-12-14T07:39:44.785Z,4.30
2023-12-14T07:42:11.781Z,5.20
2023-12-14T07:44:41.427Z,4.32
2023-12-14T07:47:08.430Z,2.75
2023-12-14T07:49:35.843Z,4.32
2023-12-14T07:52:02.639Z,3.22
2023-12-14T07:54:30.091Z,2.63
2023-12-14T07:56:56.857Z,2.65
2023-12-14T07:59:24.016Z,2.38
2023-12-14T08:01:50.954Z,1.70
2023-12-14T08:04:17.747Z,2.10
2023-12-14T08:06:44.522Z,2.03
2023-12-14T08:09:11.350Z,2.67
2023-12-14T08:11:38.185Z,2.55
2023-12-14T08:14:05.216Z,2.08
2023-12-14T08:16:32.033Z,2.28
2023-12-14T08:18:58.844Z,3.20
2023-12-14T08:21:25.745Z,3.42
2023-12-14T08:23:52.540Z,4.65
2023-12-14T08:26:19.512Z,3.05
2023-12-14T08:28:46.864Z,7.95
2023-12-14T08:31:13.668Z,5.82
2023-12-14T08:33:45.569Z,3.30
2023-12-14T08:36:17.854Z,5.63
2023-12-14T08:38:44.658Z,6.38
2023-12-14T08:41:16.159Z,6.03
2023-12-14T08:43:43.416Z,4.30
2023-12-14T08:46:14.080Z,4.30
2023-12-14T08:48:40.833Z,3.03
2023-12-14T08:51:07.758Z,2.42
2023-12-14T08:53:34.564Z,2.55
2023-12-14T08:56:01.743Z,2.30
2023-12-14T08:58:28.464Z,3.10
2023-12-14T09:00:55.338Z,2.35
2023-12-14T09:03:22.663Z,3.25
2023-12-14T09:05:49.691Z,2.60
2023-12-14T09:08:17.036Z,3.58
2023-12-14T09:10:44.058Z,2.70
2023-12-14T09:13:11.093Z,5.60
2023-12-14T09:15:37.858Z,6.50
2023-12-14T09:18:04.835Z,6.40
2023-12-14T09:20:32.465Z,5.78
2023-12-14T09:22:59.351Z,6.97
2023-12-14T09:25:26.279Z,3.85
2023-12-14T09:27:53.185Z,2.50
2023-12-14T09:30:20.119Z,3.45
2023-12-14T09:32:47.162Z,2.78
2023-12-14T09:35:14.130Z,1.88
2023-12-14T09:37:42.341Z,2.55
2023-12-14T09:40:09.842Z,1.85
2023-12-14T09:42:40.259Z,2.00
2023-12-14T09:45:09.606Z,2.00
2023-12-14T09:47:38.574Z,2.20
2023-12-14T09:50:06.791Z,3.53
2023-12-14T09:52:34.850Z,2.17
2023-12-14T09:55:05.001Z,4.20
2023-12-14T09:57:32.615Z,2.30
2023-12-14T09:59:59.647Z,2.75
2023-12-14T10:02:31.017Z,3.83
2023-12-14T10:04:58.557Z,3.72
2023-12-14T10:07:25.661Z,3.85
2023-12-14T10:09:54.120Z,3.28
2023-12-14T10:12:23.143Z,4.57
2023-12-14T10:15:02.521Z,5.43
2023-12-14T10:17:33.708Z,6.00
2023-12-14T10:20:05.793Z,4.68
2023-12-14T10:22:34.183Z,4.30
2023-12-14T10:25:02.337Z,2.75
2023-12-14T10:27:29.150Z,2.75
2023-12-14T10:29:57.560Z,3.50
2023-12-14T10:32:25.460Z,1.40
2023-12-14T10:34:52.328Z,3.22
2023-12-14T10:37:22.378Z,3.03
2023-12-14T10:39:50.325Z,2.00
2023-12-14T10:42:21.188Z,1.73
2023-12-14T10:47:23.515Z,3.13
2023-12-14T10:49:52.305Z,1.35
2023-12-14T10:52:21.928Z,2.67
2023-12-14T10:54:54.856Z,2.10
2023-12-14T10:57:22.628Z,1.80
2023-12-14T11:00:02.348Z,2.22
2023-12-14T11:02:29.110Z,1.73
2023-12-14T11:05:06.536Z,2.55
2023-12-14T11:08:07.158Z,2.08
2023-12-14T11:10:42.602Z,1.88
2023-12-14T11:13:13.185Z,1.80
2023-12-14T11:15:51.084Z,1.77
2023-12-14T11:18:23.034Z,2.60
2023-12-14T11:20:50.761Z,2.47
2023-12-14T11:23:25.850Z,2.47
2023-12-14T11:26:13.540Z,2.25
2023-12-14T11:28:45.168Z,1.73
2023-12-14T11:31:13.502Z,1.70
2023-12-14T11:33:44.000Z,1.48
2023-12-14T11:36:13.579Z,1.45
2023-12-14T11:38:40.435Z,1.80
2023-12-14T11:41:07.358Z,1.80
2023-12-14T11:43:42.543Z,1.63
2023-12-14T11:46:10.629Z,1.95
2023-12-14T11:48:37.854Z,1.60
2023-12-14T11:51:04.888Z,2.35
2023-12-14T11:53:32.299Z,1.50
2023-12-14T11:56:03.966Z,1.80
2023-12-14T11:58:34.700Z,1.70
2023-12-14T12:01:18.389Z,1.48
2023-12-14T12:03:46.808Z,2.00
2023-12-14T12:06:25.145Z,1.95
2023-12-14T12:08:53.243Z,2.45
2023-12-14T12:11:25.043Z,1.55
2023-12-14T12:14:01.159Z,1.63
2023-12-14T12:16:28.140Z,1.95
2023-12-14T12:18:55.201Z,2.55
2023-12-14T12:21:22.144Z,2.10
2023-12-14T12:23:48.949Z,1.90
2023-12-14T12:26:16.284Z,2.35
2023-12-14T12:28:43.328Z,1.73
2023-12-14T12:31:10.269Z,1.67
2023-12-14T12:33:39.404Z,1.95
2023-12-14T12:36:07.170Z,2.10
2023-12-14T12:38:34.766Z,1.73
2023-12-14T12:41:01.829Z,1.90
2023-12-14T12:43:28.767Z,2.15
2023-12-14T12:45:55.510Z,1.83
2023-12-14T12:48:24.826Z,1.85
2023-12-14T12:50:53.665Z,2.30
2023-12-14T12:53:20.497Z,2.58
2023-12-14T12:55:47.452Z,2.17
2023-12-14T12:58:16.182Z,1.80
2023-12-14T13:00:43.124Z,1.40
2023-12-14T13:03:11.318Z,1.58
2023-12-14T13:05:38.348Z,1.30
2023-12-14T13:08:05.281Z,2.53
2023-12-14T13:10:33.072Z,1.42
2023-12-14T13:13:00.407Z,1.65
2023-12-14T13:15:30.076Z,1.65
2023-12-14T13:17:57.049Z,2.42
2023-12-14T13:20:24.626Z,1.83
2023-12-14T13:22:51.712Z,1.70
2023-12-14T13:25:18.719Z,2.00
2023-12-14T13:27:45.667Z,1.50
2023-12-14T13:30:18.087Z,1.52
2023-12-14T13:35:11.822Z,2.10
2023-12-14T13:37:38.951Z,2.08
2023-12-14T13:40:06.776Z,1.73
2023-12-14T13:42:33.723Z,2.33
2023-12-14T13:45:00.503Z,2.03
2023-12-14T13:47:28.520Z,1.80
2023-12-14T13:49:55.330Z,2.92
2023-12-14T13:52:22.158Z,2.47
2023-12-14T13:54:48.975Z,1.80
2023-12-14T13:57:15.712Z,2.50
2023-12-14T13:59:42.531Z,1.52
2023-12-14T14:02:10.241Z,2.20
2023-12-14T14:04:37.056Z,1.30
2023-12-14T14:07:04.120Z,1.10
2023-12-14T14:09:31.026Z,1.50
2023-12-14T14:11:58.079Z,1.58
2023-12-14T14:14:25.283Z,1.88
2023-12-14T14:16:53.152Z,1.77
2023-12-14T14:19:19.947Z,1.60
2023-12-14T14:21:47.396Z,1.73
2023-12-14T14:24:14.150Z,2.10
2023-12-14T14:26:41.017Z,2.20
2023-12-14T14:29:07.823Z,2.80
2023-12-14T14:31:34.543Z,1.67
2023-12-14T14:34:01.729Z,2.35
2023-12-14T14:36:29.170Z,2.22
2023-12-14T14:38:58.723Z,1.40
2023-12-14T14:41:28.492Z,2.85
2023-12-14T14:43:55.555Z,3.58
2023-12-14T14:46:22.420Z,2.60
2023-12-14T14:48:49.285Z,2.13
2023-12-14T14:51:16.196Z,3.08
2023-12-14T14:53:45.993Z,2.58
2023-12-14T14:56:12.946Z,1.83
2023-12-14T14:58:39.746Z,2.42
2023-12-14T15:01:06.803Z,1.60
2023-12-14T15:03:33.933Z,2.25
2023-12-14T15:06:01.033Z,2.50
2023-12-14T15:08:27.997Z,2.17
2023-12-14T15:10:56.877Z,2.75
2023-12-14T15:13:24.329Z,2.47
2023-12-14T15:15:51.388Z,2.45
2023-12-14T15:18:18.354Z,2.58
2023-12-14T15:20:45.262Z,2.38
2023-12-14T15:23:12.027Z,2.15
2023-12-14T15:25:38.974Z,2.22
2023-12-14T15:28:05.837Z,3.15
2023-12-14T15:30:33.077Z,2.97
2023-12-14T15:32:59.966Z,2.10
2023-12-14T15:35:27.095Z,2.35
2023-12-14T15:37:53.943Z,2.40
2023-12-14T15:40:20.931Z,2.78
2023-12-14T15:42:51.961Z,2.53
2023-12-14T15:45:21.169Z,2.45
2023-12-14T15:47:48.101Z,2.58
2023-12-14T15:50:15.262Z,2.42
2023-12-14T15:52:42.042Z,3.10
2023-12-14T15:55:09.368Z,2.60
2023-12-14T15:57:36.187Z,2.75
2023-12-14T16:00:04.819Z,2.90
2023-12-14T16:02:31.677Z,3.00
2023-12-14T16:04:58.633Z,2.75
2023-12-14T16:07:25.637Z,2.72
2023-12-14T16:09:52.510Z,2.60
2023-12-14T16:12:19.334Z,2.85
2023-12-14T16:14:46.154Z,3.08
2023-12-14T16:17:13.050Z,3.55
2023-12-14T16:19:41.433Z,3.95
2023-12-14T16:22:08.308Z,3.50
2023-12-14T16:24:35.101Z,2.33
2023-12-14T16:27:01.813Z,3.55
2023-12-14T16:29:28.616Z,3.42
2023-12-14T16:31:55.702Z,2.95
2023-12-14T16:34:22.749Z,2.42
2023-12-14T16:36:49.932Z,2.67
2023-12-14T16:39:17.053Z,2.70
2023-12-14T16:41:44.149Z,2.63
2023-12-14T16:44:11.111Z,3.53
2023-12-14T16:46:38.071Z,3.78
2023-12-14T16:49:05.074Z,3.47
2023-12-14T16:51:32.080Z,3.35
2023-12-14T16:53:58.939Z,3.17
2023-12-14T16:56:33.374Z,2.90
2023-12-14T16:59:00.645Z,3.20
2023-12-14T17:01:27.588Z,3.60
2023-12-14T17:03:54.343Z,2.47
2023-12-14T17:06:22.709Z,3.33
2023-12-14T17:08:49.574Z,3.17
2023-12-14T17:11:16.823Z,2.70
2023-12-14T17:13:43.868Z,3.50
2023-12-14T17:16:18.251Z,3.63
2023-12-14T17:18:46.394Z,3.80
2023-12-14T17:21:23.092Z,4.30
2023-12-14T17:23:50.962Z,4.40
2023-12-14T17:26:18.625Z,3.90
2023-12-14T17:28:50.725Z,3.63
2023-12-14T17:31:19.325Z,3.42
2023-12-14T17:33:46.949Z,4.57
2023-12-14T17:36:14.314Z,4.15
2023-12-14T17:38:41.272Z,4.07
2023-12-14T17:41:15.929Z,5.30
2023-12-14T17:43:44.052Z,5.43
2023-12-14T17:46:15.685Z,4.20
2023-12-14T17:48:42.775Z,4.83
2023-12-14T17:51:09.742Z,4.53
2023-12-14T17:53:37.700Z,4.80
2023-12-14T17:56:04.945Z,4.88
2023-12-14T17:58:31.770Z,4.90
2023-12-14T18:01:04.040Z,4.32
2023-12-14T18:03:33.417Z,4.00
2023-12-14T18:06:03.026Z,3.30
2023-12-14T18:08:30.285Z,4.40
2023-12-14T18:10:58.029Z,5.47
2023-12-14T18:13:26.738Z,4.82
2023-12-14T18:15:53.871Z,4.00
2023-12-14T18:18:20.866Z,4.55
2023-12-14T18:20:48.098Z,5.63
2023-12-14T18:23:14.978Z,4.50
2023-12-14T18:25:42.523Z,5.43
2023-12-14T18:28:09.399Z,4.32
2023-12-14T18:30:36.154Z,3.95
2023-12-14T18:33:03.052Z,4.47
2023-12-14T18:35:30.005Z,4.28
2023-12-14T18:37:57.613Z,4.97
2023-12-14T18:40:26.307Z,4.35
2023-12-14T18:42:53.766Z,5.28
2023-12-14T18:45:21.030Z,4.57
2023-12-14T18:47:48.276Z,4.95
2023-12-14T18:50:15.565Z,3.95
2023-12-14T18:52:42.305Z,4.72
2023-12-14T18:55:10.272Z,4.38
2023-12-14T18:57:37.577Z,4.82
2023-12-14T19:00:05.850Z,5.28
2023-12-14T19:02:32.815Z,5.82
2023-12-14T19:04:59.738Z,6.47
2023-12-14T19:07:26.604Z,5.22
2023-12-14T19:09:55.064Z,6.35
2023-12-14T19:12:21.995Z,5.75
2023-12-14T19:14:49.414Z,5.82
2023-12-14T19:17:16.565Z,5.38
2023-12-14T19:19:43.457Z,5.03
2023-12-14T19:22:10.223Z,6.85
2023-12-14T19:24:36.977Z,5.20
2023-12-14T19:27:04.192Z,5.65
2023-12-14T19:29:31.224Z,6.47
2023-12-14T19:31:58.324Z,5.95
2023-12-14T19:34:25.182Z,6.65
2023-12-14T19:36:51.900Z,5.97
2023-12-14T19:39:20.031Z,5.75
2023-12-14T19:41:46.827Z,5.15
2023-12-14T19:44:13.814Z,5.43
2023-12-14T19:46:40.628Z,8.18
2023-12-14T19:49:07.406Z,8.27
2023-12-14T19:51:39.628Z,9.63
2023-12-14T19:54:06.730Z,8.05
2023-12-14T19:56:33.864Z,9.15
2023-12-14T19:59:00.815Z,9.75
2023-12-14T20:01:34.294Z,6.60
2023-12-14T20:04:01.852Z,6.30
2023-12-14T20:06:28.958Z,6.53
2023-12-14T20:08:55.753Z,6.95
2023-12-14T20:11:22.605Z,5.60
2023-12-14T20:13:49.765Z,4.95
2023-12-14T20:16:16.600Z,4.88
2023-12-14T20:18:43.638Z,6.28
2023-12-14T20:21:10.531Z,5.00
2023-12-14T20:23:37.566Z,5.72
2023-12-14T20:26:05.176Z,5.07
2023-12-14T20:28:32.312Z,5.88
2023-12-14T20:30:59.203Z,6.30
2023-12-14T20:33:26.125Z,5.45
2023-12-14T20:35:54.861Z,5.13
2023-12-14T20:38:21.778Z,6.65
2023-12-14T20:40:48.723Z,6.18
2023-12-14T20:43:16.438Z,5.82
2023-12-14T20:45:43.384Z,5.85
2023-12-14T20:48:10.389Z,4.88
2023-12-14T20:50:37.475Z,5.20
2023-12-14T20:53:04.389Z,6.38
2023-12-14T20:55:31.503Z,5.72
2023-12-14T20:57:58.282Z,6.55
2023-12-14T21:00:25.119Z,7.07
2023-12-14T21:02:52.478Z,5.50
2023-12-14T21:05:20.760Z,5.50
2023-12-14T21:07:48.665Z,5.25
2023-12-14T21:10:15.513Z,5.57
2023-12-14T21:12:42.258Z,5.68
2023-12-14T21:15:09.214Z,5.22
2023-12-14T21:17:37.202Z,5.93
2023-12-14T21:20:04.698Z,4.60
2023-12-14T21:22:31.584Z,5.45
2023-12-14T21:25:02.401Z,5.40
2023-12-14T21:27:48.202Z,5.07
2023-12-14T21:30:20.374Z,5.50
2023-12-14T21:32:48.784Z,6.68
2023-12-14T21:35:16.368Z,5.40
2023-12-14T21:37:43.605Z,6.13
2023-12-14T21:40:10.911Z,5.50
2023-12-14T21:42:37.851Z,6.35
2023-12-14T21:45:05.020Z,4.85
2023-12-14T21:47:31.917Z,5.80
2023-12-14T21:49:58.948Z,5.70
2023-12-14T21:52:25.797Z,5.88
2023-12-14T21:54:52.560Z,4.82
2023-12-14T21:57:19.431Z,5.80
2023-12-14T21:59:46.400Z,5.03
2023-12-14T22:02:13.270Z,6.13
2023-12-14T22:04:40.097Z,5.30
2023-12-14T22:07:06.930Z,5.22
2023-12-14T22:09:33.745Z,4.57
2023-12-14T22:12:08.553Z,4.70
2023-12-14T22:14:35.729Z,4.57
2023-12-14T22:17:06.367Z,4.85
2023-12-14T22:19:37.241Z,4.60
2023-12-14T22:22:05.357Z,6.20
2023-12-14T22:24:32.273Z,5.43
2023-12-14T22:27:01.371Z,5.75
2023-12-14T22:29:28.521Z,5.35
2023-12-14T22:31:55.520Z,4.45
2023-12-14T22:34:22.524Z,5.60
2023-12-14T22:36:50.076Z,4.80
2023-12-14T22:39:16.937Z,5.60
2023-12-14T22:41:43.781Z,6.15
2023-12-14T22:44:10.739Z,5.20
2023-12-14T22:46:41.184Z,5.72
2023-12-14T22:49:09.889Z,5.45
2023-12-14T22:51:37.563Z,6.78
2023-12-14T22:54:04.607Z,5.78
2023-12-14T22:56:31.521Z,4.45
2023-12-14T22:58:58.408Z,5.68
2023-12-14T23:01:30.188Z,5.45
2023-12-14T23:03:57.072Z,4.72
2023-12-14T23:06:26.556Z,6.28
2023-12-14T23:08:57.379Z,6.78
2023-12-14T23:11:29.732Z,5.15
2023-12-14T23:13:56.685Z,5.75
2023-12-14T23:16:23.532Z,5.78
2023-12-14T23:18:50.652Z,5.55
2023-12-14T23:21:17.510Z,6.93
2023-12-14T23:23:44.293Z,5.70
2023-12-14T23:26:11.226Z,5.68
2023-12-14T23:28:38.021Z,5.85
2023-12-14T23:31:05.156Z,5.75
2023-12-14T23:33:31.982Z,5.57
2023-12-14T23:35:58.910Z,5.18
2023-12-14T23:38:25.784Z,5.43
2023-12-14T23:40:52.717Z,5.97
2023-12-14T23:43:19.594Z,5.82
2023-12-14T23:45:47.841Z,6.20
2023-12-14T23:48:15.027Z,5.20
2023-12-14T23:50:42.035Z,4.88
2023-12-14T23:53:08.809Z,5.43
2023-12-14T23:55:35.745Z,4.88
2023-12-14T23:58:02.444Z,4.68
